createdAt,value
2022-11-16T00:02:13.090Z,2.95
2022-11-16T00:04:39.541Z,3.42
2022-11-16T00:07:06.238Z,2.90
2022-11-16T00:09:33.359Z,3.15
2022-11-16T00:12:05.202Z,3.20
2022-11-16T00:14:34.246Z,3.17
2022-11-16T00:17:01.142Z,3.30
2022-11-16T00:19:28.228Z,2.90
2022-11-16T00:21:55.357Z,3.28
2022-11-16T00:24:23.264Z,2.92
2022-11-16T00:26:50.061Z,3.10
2022-11-16T00:29:19.678Z,3.38
2022-11-16T00:31:46.667Z,3.20
2022-11-16T00:34:13.576Z,2.80
2022-11-16T00:36:40.029Z,3.10
2022-11-16T00:39:06.446Z,3.20
2022-11-16T00:41:32.862Z,3.40
2022-11-16T00:43:59.311Z,3.33
2022-11-16T00:46:25.707Z,3.75
2022-11-16T00:48:52.103Z,3.45
2022-11-16T00:51:18.513Z,3.80
2022-11-16T00:53:44.903Z,3.40
2022-11-16T00:56:11.380Z,3.63
2022-11-16T00:58:37.780Z,4.03
2022-11-16T01:01:06.925Z,3.95
2022-11-16T01:03:34.490Z,3.78
2022-11-16T01:06:02.710Z,3.95
2022-11-16T01:08:29.099Z,3.97
2022-11-16T01:10:55.600Z,3.80
2022-11-16T01:13:22.035Z,4.00
2022-11-16T01:15:48.716Z,3.88
2022-11-16T01:18:15.198Z,4.07
2022-11-16T01:20:41.688Z,4.45
2022-11-16T01:23:08.077Z,4.20
2022-11-16T01:25:34.594Z,4.30
2022-11-16T01:28:01.022Z,4.40
2022-11-16T01:30:27.595Z,4.63
2022-11-16T01:32:53.970Z,4.30
2022-11-16T01:35:20.736Z,4.28
2022-11-16T01:37:47.132Z,4.82
2022-11-16T01:40:14.188Z,4.60
2022-11-16T01:42:40.962Z,4.78
2022-11-16T01:45:22.210Z,4.68
2022-11-16T01:47:48.719Z,4.75
2022-11-16T01:50:17.158Z,4.65
2022-11-16T01:52:52.887Z,4.82
2022-11-16T01:55:19.893Z,4.82
2022-11-16T01:57:47.251Z,4.75
2022-11-16T02:00:14.789Z,5.22
2022-11-16T02:02:41.681Z,5.32
2022-11-16T02:05:09.376Z,5.47
2022-11-16T02:08:28.878Z,5.50
2022-11-16T02:11:29.573Z,5.10
2022-11-16T02:14:27.319Z,5.30
2022-11-16T02:17:05.479Z,5.65
2022-11-16T02:20:00.461Z,5.60
2022-11-16T02:22:30.112Z,5.68
2022-11-16T02:25:06.702Z,5.90
2022-11-16T02:28:04.125Z,5.45
2022-11-16T02:30:30.892Z,6.32
2022-11-16T02:33:02.769Z,5.75
2022-11-16T02:35:33.638Z,5.45
2022-11-16T02:38:07.964Z,5.93
2022-11-16T02:40:35.609Z,5.88
2022-11-16T02:43:07.888Z,6.25
2022-11-16T02:45:37.253Z,6.07
2022-11-16T02:48:08.794Z,5.85
2022-11-16T02:50:35.681Z,5.97
2022-11-16T02:53:02.678Z,5.50
2022-11-16T02:55:30.316Z,5.35
2022-11-16T02:58:02.069Z,5.32
2022-11-16T03:00:37.863Z,6.18
2022-11-16T03:03:28.464Z,5.25
2022-11-16T03:06:04.133Z,5.63
2022-11-16T03:08:33.660Z,5.53
2022-11-16T03:11:27.516Z,5.85
2022-11-16T03:14:04.063Z,4.85
2022-11-16T03:16:34.914Z,5.15
2022-11-16T03:19:05.603Z,5.75
2022-11-16T03:21:40.085Z,5.15
2022-11-16T03:24:07.325Z,4.82
2022-11-16T03:26:50.953Z,5.63
2022-11-16T03:29:23.896Z,5.70
2022-11-16T03:31:52.852Z,6.20
2022-11-16T03:34:20.754Z,5.57
2022-11-16T03:36:48.769Z,5.43
2022-11-16T03:39:20.572Z,5.78
2022-11-16T03:41:47.791Z,5.32
2022-11-16T03:44:15.494Z,5.85
2022-11-16T03:46:43.247Z,5.60
2022-11-16T03:49:09.727Z,5.63
2022-11-16T03:51:36.444Z,6.10
2022-11-16T03:54:03.121Z,6.07
2022-11-16T03:56:29.642Z,5.43
2022-11-16T03:58:56.216Z,5.82
2022-11-16T04:01:22.889Z,6.13
2022-11-16T04:03:49.366Z,6.10
2022-11-16T04:06:34.701Z,6.32
2022-11-16T04:09:19.507Z,5.78
2022-11-16T04:12:04.287Z,5.97
2022-11-16T04:14:49.104Z,5.72
2022-11-16T04:17:36.403Z,6.18
2022-11-16T04:20:22.340Z,5.97
2022-11-16T04:23:21.545Z,6.30
2022-11-16T04:25:50.037Z,6.20
2022-11-16T04:28:17.954Z,6.53
2022-11-16T04:31:07.654Z,6.80
2022-11-16T04:33:52.629Z,6.80
2022-11-16T04:36:38.023Z,6.45
2022-11-16T04:39:04.589Z,6.80
2022-11-16T04:41:50.552Z,7.35
2022-11-16T04:44:17.309Z,7.35
2022-11-16T04:47:02.265Z,6.53
2022-11-16T04:49:28.670Z,7.13
2022-11-16T04:51:55.180Z,7.57
2022-11-16T04:54:21.702Z,6.80
2022-11-16T04:56:48.177Z,7.80
2022-11-16T04:59:15.391Z,7.28
2022-11-16T05:02:00.450Z,7.30
2022-11-16T05:04:26.950Z,7.32
2022-11-16T05:06:53.518Z,8.30
2022-11-16T05:09:19.995Z,7.53
2022-11-16T05:11:46.538Z,7.93
2022-11-16T05:14:13.047Z,8.60
2022-11-16T05:16:39.563Z,8.35
2022-11-16T05:19:24.608Z,8.18
2022-11-16T05:21:51.163Z,8.18
2022-11-16T05:24:35.777Z,8.50
2022-11-16T05:27:07.102Z,8.48
2022-11-16T05:29:34.318Z,7.93
2022-11-16T05:32:01.143Z,8.95
2022-11-16T05:34:27.858Z,8.50
2022-11-16T05:36:54.649Z,9.02
2022-11-16T05:39:21.157Z,8.30
2022-11-16T05:41:48.082Z,9.07
2022-11-16T05:44:15.518Z,9.13
2022-11-16T05:46:42.577Z,8.95
2022-11-16T05:49:09.879Z,9.20
2022-11-16T05:51:36.877Z,9.48
2022-11-16T05:54:03.964Z,9.13
2022-11-16T05:56:31.202Z,10.00
2022-11-16T05:58:58.253Z,9.52
2022-11-16T06:01:25.161Z,9.90
2022-11-16T06:03:52.119Z,9.68
2022-11-16T06:06:19.911Z,10.38
2022-11-16T06:08:46.655Z,10.07
2022-11-16T06:11:14.173Z,9.30
2022-11-16T06:13:40.618Z,10.13
2022-11-16T06:16:07.497Z,9.93
2022-11-16T06:18:38.328Z,9.85
2022-11-16T06:21:05.063Z,9.98
2022-11-16T06:23:31.512Z,9.48
2022-11-16T06:25:57.946Z,9.85
2022-11-16T06:28:24.667Z,10.60
2022-11-16T06:30:51.247Z,10.80
2022-11-16T06:33:18.281Z,10.73
2022-11-16T06:35:45.257Z,10.63
2022-11-16T06:38:18.293Z,10.70
2022-11-16T06:40:46.218Z,10.15
2022-11-16T06:43:12.610Z,10.35
2022-11-16T06:45:39.287Z,10.68
2022-11-16T06:48:05.808Z,10.25
2022-11-16T06:50:32.229Z,10.50
2022-11-16T06:53:00.800Z,11.43
2022-11-16T06:55:28.279Z,10.73
2022-11-16T06:57:54.823Z,10.63
2022-11-16T07:00:21.607Z,10.98
2022-11-16T07:02:48.020Z,11.43
2022-11-16T07:05:14.498Z,10.75
2022-11-16T07:07:41.030Z,11.55
2022-11-16T07:10:07.849Z,10.63
2022-11-16T07:12:34.285Z,10.52
2022-11-16T07:15:00.748Z,11.05
2022-11-16T07:17:27.151Z,11.45
2022-11-16T07:19:53.580Z,11.57
2022-11-16T07:22:20.020Z,11.73
2022-11-16T07:24:46.472Z,11.48
2022-11-16T07:27:13.497Z,11.10
2022-11-16T07:29:39.872Z,10.60
2022-11-16T07:32:06.352Z,11.35
2022-11-16T07:34:32.781Z,11.85
2022-11-16T07:36:59.618Z,11.50
2022-11-16T07:39:26.105Z,11.73
2022-11-16T07:41:53.535Z,11.27
2022-11-16T07:44:20.567Z,10.70
2022-11-16T07:46:48.467Z,11.02
2022-11-16T07:49:16.795Z,10.73
2022-11-16T07:51:43.659Z,10.20
2022-11-16T07:54:14.065Z,10.02
2022-11-16T07:56:40.577Z,10.32
2022-11-16T07:59:07.118Z,10.43
2022-11-16T08:01:33.666Z,10.32
2022-11-16T08:04:01.811Z,9.57
2022-11-16T08:06:30.045Z,9.77
2022-11-16T08:08:58.991Z,10.38
2022-11-16T08:11:26.635Z,10.13
2022-11-16T08:13:53.178Z,10.50
2022-11-16T08:16:21.259Z,10.32
2022-11-16T08:18:48.138Z,10.38
2022-11-16T08:21:16.318Z,10.57
2022-11-16T08:23:44.566Z,10.38
2022-11-16T08:26:17.033Z,11.15
2022-11-16T08:28:45.844Z,10.07
2022-11-16T08:31:15.134Z,11.65
2022-11-16T08:33:41.617Z,10.43
2022-11-16T08:36:13.939Z,11.27
2022-11-16T08:38:40.771Z,11.68
2022-11-16T08:41:07.776Z,12.18
2022-11-16T08:43:34.308Z,11.55
2022-11-16T08:46:01.439Z,11.18
2022-11-16T08:48:29.514Z,10.60
2022-11-16T08:51:16.982Z,11.70
2022-11-16T08:53:44.450Z,11.02
2022-11-16T08:56:13.202Z,10.57
2022-11-16T08:58:42.319Z,10.50
2022-11-16T09:01:16.511Z,9.73
2022-11-16T09:03:43.369Z,10.73
2022-11-16T09:06:10.458Z,10.98
2022-11-16T09:08:38.400Z,11.00
2022-11-16T09:11:06.244Z,10.35
2022-11-16T09:13:32.843Z,11.15
2022-11-16T09:16:00.107Z,11.38
2022-11-16T09:18:27.487Z,11.57
2022-11-16T09:20:53.995Z,11.00
2022-11-16T09:23:25.040Z,10.90
2022-11-16T09:25:52.005Z,11.73
2022-11-16T09:28:21.494Z,10.98
2022-11-16T09:30:50.170Z,10.65
2022-11-16T09:33:17.104Z,10.90
2022-11-16T09:35:43.577Z,10.68
2022-11-16T09:38:10.100Z,11.57
2022-11-16T09:40:38.231Z,11.05
2022-11-16T09:43:24.033Z,11.40
2022-11-16T09:46:28.249Z,10.38
2022-11-16T09:48:58.263Z,10.63
2022-11-16T09:51:26.747Z,10.32
2022-11-16T09:53:58.397Z,10.35
2022-11-16T09:56:26.032Z,9.97
2022-11-16T09:58:58.519Z,9.43
2022-11-16T10:04:09.137Z,9.55
2022-11-16T10:06:53.023Z,8.98
2022-11-16T10:09:19.900Z,9.93
2022-11-16T10:12:01.115Z,9.55
2022-11-16T10:14:51.972Z,10.10
2022-11-16T10:17:38.657Z,9.35
2022-11-16T10:20:30.510Z,9.05
2022-11-16T10:23:19.630Z,9.27
2022-11-16T10:25:48.581Z,9.80
2022-11-16T10:28:24.130Z,8.85
2022-11-16T10:31:19.507Z,8.77
2022-11-16T10:33:47.061Z,8.25
2022-11-16T10:36:15.227Z,8.15
2022-11-16T10:38:42.380Z,8.60
2022-11-16T10:41:19.399Z,8.82
2022-11-16T10:43:46.245Z,8.23
2022-11-16T10:46:22.898Z,8.02
2022-11-16T10:49:02.275Z,7.85
2022-11-16T10:51:28.724Z,8.18
2022-11-16T10:53:55.981Z,8.30
2022-11-16T10:56:37.180Z,8.70
2022-11-16T10:59:12.343Z,8.65
2022-11-16T11:01:51.309Z,7.32
2022-11-16T11:04:28.818Z,8.23
2022-11-16T11:06:57.281Z,8.70
2022-11-16T11:09:31.069Z,8.35
2022-11-16T11:12:39.619Z,8.77
2022-11-16T11:15:12.060Z,8.48
2022-11-16T11:17:43.081Z,8.02
2022-11-16T11:20:16.948Z,7.57
2022-11-16T11:22:52.658Z,8.35
2022-11-16T11:25:24.353Z,8.60
2022-11-16T11:27:53.191Z,8.33
2022-11-16T11:30:21.127Z,8.68
2022-11-16T11:32:48.134Z,7.82
2022-11-16T11:35:30.192Z,8.80
2022-11-16T11:38:03.378Z,8.43
2022-11-16T11:40:33.752Z,8.57
2022-11-16T11:43:02.660Z,8.70
2022-11-16T11:45:40.999Z,8.90
2022-11-16T11:48:19.159Z,8.75
2022-11-16T11:50:52.808Z,9.48
2022-11-16T11:53:41.054Z,9.32
2022-11-16T11:56:10.481Z,8.60
2022-11-16T11:58:39.280Z,9.50
2022-11-16T12:01:29.782Z,10.80
2022-11-16T12:04:08.269Z,11.02
2022-11-16T12:07:07.661Z,11.35
2022-11-16T12:09:47.842Z,11.02
2022-11-16T12:12:34.813Z,10.40
2022-11-16T12:15:26.026Z,9.40
2022-11-16T12:18:10.784Z,9.50
2022-11-16T12:21:04.194Z,8.98
2022-11-16T12:24:09.258Z,8.02
2022-11-16T12:26:35.571Z,7.85
2022-11-16T12:29:08.374Z,7.13
2022-11-16T12:31:53.395Z,6.88
2022-11-16T12:34:52.532Z,6.63
2022-11-16T12:37:39.295Z,5.50
2022-11-16T12:40:09.390Z,4.88
2022-11-16T12:42:49.476Z,4.00
2022-11-16T12:45:32.792Z,3.97
2022-11-16T12:48:08.272Z,4.45
2022-11-16T12:50:51.823Z,4.75
2022-11-16T12:53:21.081Z,3.67
2022-11-16T12:55:57.326Z,3.42
2022-11-16T12:58:41.755Z,3.03
2022-11-16T13:01:16.708Z,2.55
2022-11-16T13:03:52.889Z,2.50
2022-11-16T13:06:27.892Z,2.63
2022-11-16T13:09:14.474Z,2.55
2022-11-16T13:11:44.534Z,2.40
2022-11-16T13:14:14.502Z,2.63
2022-11-16T13:16:40.982Z,2.50
2022-11-16T13:19:10.517Z,2.53
2022-11-16T13:21:50.258Z,2.67
2022-11-16T13:24:17.413Z,2.20
2022-11-16T13:26:57.149Z,2.67
2022-11-16T13:29:40.475Z,2.90
2022-11-16T13:32:33.093Z,2.45
2022-11-16T13:35:00.175Z,2.70
2022-11-16T13:37:38.823Z,2.78
2022-11-16T13:40:05.242Z,2.88
2022-11-16T13:42:33.729Z,3.05
2022-11-16T13:45:19.625Z,2.78
2022-11-16T13:47:50.806Z,2.70
2022-11-16T13:50:19.228Z,2.95
2022-11-16T13:53:57.528Z,3.05
2022-11-16T13:55:43.784Z,2.63
2022-11-16T13:58:12.955Z,3.22
2022-11-16T14:00:40.198Z,2.83
2022-11-16T14:03:15.777Z,3.25
2022-11-16T14:05:52.353Z,3.08
2022-11-16T14:08:24.894Z,3.58
2022-11-16T14:13:30.041Z,3.30
2022-11-16T14:16:14.724Z,3.15
2022-11-16T14:18:44.787Z,3.28
2022-11-16T14:21:14.026Z,3.15
2022-11-16T14:24:02.927Z,2.90
2022-11-16T14:26:43.256Z,2.65
2022-11-16T14:29:16.758Z,3.00
2022-11-16T14:31:52.308Z,2.92
2022-11-16T14:34:22.494Z,3.17
2022-11-16T14:36:49.558Z,2.65
2022-11-16T14:39:22.768Z,2.60
2022-11-16T14:41:49.363Z,2.88
2022-11-16T14:44:20.127Z,2.67
2022-11-16T14:46:46.610Z,2.53
2022-11-16T14:49:16.030Z,2.63
2022-11-16T14:51:45.315Z,3.03
2022-11-16T14:54:19.855Z,2.67
2022-11-16T14:56:57.624Z,3.00
2022-11-16T14:59:24.314Z,3.10
2022-11-16T15:01:50.830Z,3.38
2022-11-16T15:04:17.786Z,2.97
2022-11-16T15:06:49.921Z,3.28
2022-11-16T15:09:27.238Z,2.90
2022-11-16T15:12:12.898Z,3.22
2022-11-16T15:14:48.578Z,2.55
2022-11-16T15:17:18.000Z,2.75
2022-11-16T15:19:53.405Z,2.75
2022-11-16T15:22:20.011Z,3.63
2022-11-16T15:24:54.301Z,3.45
2022-11-16T15:27:42.414Z,3.40
2022-11-16T15:30:18.598Z,4.13
2022-11-16T15:32:47.033Z,7.65
2022-11-16T15:35:34.428Z,5.63
2022-11-16T15:38:02.525Z,4.30
2022-11-16T15:40:29.560Z,4.07
2022-11-16T15:42:58.325Z,3.92
2022-11-16T15:45:25.697Z,3.97
2022-11-16T15:47:53.785Z,4.70
2022-11-16T15:50:23.161Z,4.32
2022-11-16T15:52:56.473Z,3.90
2022-11-16T15:55:32.028Z,3.67
2022-11-16T15:58:07.550Z,3.78
2022-11-16T16:00:36.113Z,3.90
2022-11-16T16:03:06.137Z,3.70
2022-11-16T16:05:40.960Z,3.20
2022-11-16T16:08:27.622Z,3.67
2022-11-16T16:11:33.025Z,3.45
2022-11-16T16:14:02.031Z,3.80
2022-11-16T16:16:32.605Z,3.60
2022-11-16T16:19:05.104Z,3.55
2022-11-16T16:21:43.333Z,3.55
2022-11-16T16:24:41.219Z,2.90
2022-11-16T16:27:11.893Z,3.38
2022-11-16T16:29:38.328Z,3.72
2022-11-16T16:32:05.083Z,4.03
2022-11-16T16:34:31.504Z,4.18
2022-11-16T16:36:57.928Z,4.78
2022-11-16T16:39:24.307Z,5.57
2022-11-16T16:41:50.782Z,5.68
2022-11-16T16:44:17.270Z,5.82
2022-11-16T16:46:43.642Z,5.88
2022-11-16T16:49:10.381Z,7.10
2022-11-16T16:51:36.792Z,7.13
2022-11-16T16:54:03.300Z,7.75
2022-11-16T16:56:29.709Z,8.65
2022-11-16T16:58:56.135Z,9.10
2022-11-16T17:01:22.601Z,10.10
2022-11-16T17:03:49.090Z,10.02
2022-11-16T17:06:15.480Z,10.38
2022-11-16T17:08:41.877Z,11.18
2022-11-16T17:11:08.956Z,10.60
2022-11-16T17:13:35.772Z,11.18
2022-11-16T17:16:05.425Z,12.13
2022-11-16T17:18:31.807Z,12.13
2022-11-16T17:21:04.377Z,13.13
2022-11-16T17:25:57.207Z,14.02
2022-11-16T17:28:23.586Z,15.23
2022-11-16T17:30:49.985Z,16.60
2022-11-16T17:33:16.384Z,16.25
2022-11-16T17:35:42.773Z,14.93
2022-11-16T17:38:09.877Z,15.13
2022-11-16T17:40:36.532Z,15.45
2022-11-16T17:43:03.187Z,15.35
2022-11-16T17:45:29.648Z,15.65
2022-11-16T17:47:56.027Z,15.93
2022-11-16T17:50:22.429Z,17.85
2022-11-16T17:52:48.792Z,18.95
2022-11-16T17:55:15.229Z,18.92
2022-11-16T17:57:41.603Z,18.83
2022-11-16T18:00:09.051Z,17.15
2022-11-16T18:02:35.428Z,17.20
2022-11-16T18:05:01.834Z,18.13
2022-11-16T18:07:30.140Z,19.17
2022-11-16T18:09:56.674Z,19.45
2022-11-16T18:12:23.170Z,19.75
2022-11-16T18:15:13.491Z,19.67
2022-11-16T18:17:36.253Z,20.88
2022-11-16T18:20:04.703Z,20.70
2022-11-16T18:22:31.097Z,20.20
2022-11-16T18:24:57.490Z,22.05
2022-11-16T18:27:23.904Z,22.63
2022-11-16T18:29:50.307Z,22.67
2022-11-16T18:32:16.769Z,22.50
2022-11-16T18:34:43.300Z,23.02
2022-11-16T18:37:09.674Z,23.42
2022-11-16T18:39:36.107Z,23.63
2022-11-16T18:42:02.510Z,21.60
2022-11-16T18:44:28.911Z,21.48
2022-11-16T18:46:55.370Z,21.02
2022-11-16T18:49:21.785Z,21.23
2022-11-16T18:51:48.209Z,22.30
2022-11-16T18:54:14.583Z,21.48
2022-11-16T18:56:40.971Z,21.02
2022-11-16T18:59:07.433Z,20.35
2022-11-16T19:01:34.174Z,20.27
2022-11-16T19:04:00.701Z,20.10
2022-11-16T19:06:27.206Z,18.83
2022-11-16T19:08:56.360Z,18.48
2022-11-16T19:11:23.775Z,19.30
2022-11-16T19:13:59.880Z,19.33
2022-11-16T19:16:26.698Z,19.40
2022-11-16T19:18:53.125Z,19.15
2022-11-16T19:21:19.606Z,20.42
2022-11-16T19:23:48.260Z,19.80
2022-11-16T19:26:16.048Z,19.92
2022-11-16T19:28:45.309Z,19.80
2022-11-16T19:31:14.576Z,19.77
2022-11-16T19:33:41.365Z,19.20
2022-11-16T19:36:09.556Z,19.40
2022-11-16T19:38:36.335Z,17.67
2022-11-16T19:41:03.047Z,19.38
2022-11-16T19:43:29.567Z,20.30
2022-11-16T19:45:55.950Z,20.08
2022-11-16T19:48:22.332Z,20.60
2022-11-16T19:50:48.709Z,20.25
2022-11-16T19:53:15.081Z,20.13
2022-11-16T19:55:41.730Z,19.33
2022-11-16T19:58:08.085Z,19.65
2022-11-16T20:00:34.488Z,18.85
2022-11-16T20:03:00.941Z,20.10
2022-11-16T20:05:29.903Z,18.48
2022-11-16T20:07:56.265Z,19.88
2022-11-16T20:10:22.640Z,20.30
2022-11-16T20:12:49.635Z,20.25
2022-11-16T20:15:16.119Z,19.33
2022-11-16T20:17:42.588Z,20.98
2022-11-16T20:20:09.367Z,19.83
2022-11-16T20:22:35.796Z,20.33
2022-11-16T20:25:02.196Z,19.83
2022-11-16T20:27:28.576Z,21.15
2022-11-16T20:29:54.970Z,20.13
2022-11-16T20:32:21.643Z,19.98
2022-11-16T20:34:48.027Z,19.75
2022-11-16T20:37:14.931Z,19.70
2022-11-16T20:39:42.227Z,20.50
2022-11-16T20:42:08.621Z,18.42
2022-11-16T20:44:34.972Z,20.00
2022-11-16T20:47:01.348Z,19.95
2022-11-16T20:49:27.749Z,19.17
2022-11-16T20:51:54.214Z,18.95
2022-11-16T20:54:20.661Z,18.80
2022-11-16T20:56:49.477Z,18.63
2022-11-16T20:59:16.221Z,19.08
2022-11-16T21:01:47.590Z,18.95
2022-11-16T21:04:15.097Z,18.90
2022-11-16T21:06:41.496Z,19.50
2022-11-16T21:09:07.919Z,18.23
2022-11-16T21:11:52.967Z,19.88
2022-11-16T21:14:20.019Z,20.50
2022-11-16T21:16:46.441Z,19.50
2022-11-16T21:19:12.830Z,20.30
2022-11-16T21:21:40.715Z,19.00
2022-11-16T21:24:10.559Z,21.15
2022-11-16T21:26:37.407Z,20.73
2022-11-16T21:29:03.951Z,21.23
2022-11-16T21:31:32.179Z,20.98
2022-11-16T21:34:00.688Z,21.52
2022-11-16T21:36:28.403Z,19.80
2022-11-16T21:38:55.437Z,19.95
2022-11-16T21:41:23.009Z,20.90
2022-11-16T21:43:49.468Z,20.38
2022-11-16T21:46:18.142Z,19.35
2022-11-16T21:48:44.935Z,18.92
2022-11-16T21:51:16.332Z,19.55
2022-11-16T21:53:43.005Z,18.08
2022-11-16T21:56:20.467Z,19.35
2022-11-16T21:58:46.923Z,19.25
2022-11-16T22:01:15.570Z,19.95
2022-11-16T22:03:42.093Z,19.45
2022-11-16T22:06:31.791Z,19.88
2022-11-16T22:08:58.413Z,20.17
2022-11-16T22:11:24.902Z,18.90
2022-11-16T22:13:51.451Z,20.17
2022-11-16T22:16:20.903Z,20.35
2022-11-16T22:18:47.404Z,18.95
2022-11-16T22:21:13.817Z,20.25
2022-11-16T22:23:40.689Z,20.45
2022-11-16T22:26:09.771Z,19.95
2022-11-16T22:28:37.270Z,20.85
2022-11-16T22:31:08.142Z,19.50
2022-11-16T22:33:35.074Z,20.70
2022-11-16T22:36:02.051Z,20.27
2022-11-16T22:38:28.485Z,21.35
2022-11-16T22:40:56.370Z,21.98
2022-11-16T22:43:24.961Z,21.77
2022-11-16T22:45:51.371Z,21.40
2022-11-16T22:48:17.879Z,20.80
2022-11-16T22:50:44.334Z,20.85
2022-11-16T22:53:10.798Z,20.83
2022-11-16T22:55:38.091Z,21.55
2022-11-16T22:58:05.450Z,20.40
2022-11-16T23:00:36.237Z,21.35
2022-11-16T23:03:05.558Z,19.35
2022-11-16T23:05:31.956Z,20.25
2022-11-16T23:07:58.438Z,19.42
2022-11-16T23:10:24.871Z,19.67
2022-11-16T23:13:09.762Z,19.35
2022-11-16T23:16:05.316Z,19.52
2022-11-16T23:18:32.819Z,17.52
2022-11-16T23:21:17.473Z,19.08
2022-11-16T23:24:02.227Z,18.40
2022-11-16T23:26:47.018Z,17.73
2022-11-16T23:29:13.470Z,18.27
2022-11-16T23:31:39.857Z,17.73
2022-11-16T23:34:06.273Z,17.30
2022-11-16T23:36:32.793Z,17.83
2022-11-16T23:38:59.160Z,17.63
2022-11-16T23:41:44.115Z,17.90
2022-11-16T23:44:10.680Z,18.00
2022-11-16T23:46:37.056Z,18.00
2022-11-16T23:49:03.411Z,17.55
2022-11-16T23:51:29.808Z,17.67
2022-11-16T23:53:56.361Z,17.83
2022-11-16T23:56:23.287Z,17.95
2022-11-16T23:58:49.779Z,18.02
